Time;durP1;ratioP1;P1;durP2;ratioP2;P2;SDS_P1;SDS_P2;PMS_P1;PMS_P2;Temp;Humidity;BMP_temperature;BMP_pressure;BME280_temperature;BME280_humidity;BME280_pressure;Samples;Min_cycle;Max_cycle;Signal;HPM_P1;HPM_P2
2022/08/12 00:44:42;;;;;;;3.05;0.90;;;15.50;58.90;15.50;101196.00;;;;5001154;27;87999;-63
2022/08/12 00:47:09;;;;;;;2.28;1.15;;;15.50;59.20;15.40;101200.00;;;;5010429;27;108593;-62
2022/08/12 00:49:37;;;;;;;2.13;1.38;;;15.40;59.50;15.40;101191.00;;;;4996211;27;99190;-63
2022/08/12 00:52:05;;;;;;;1.03;0.93;;;15.30;59.70;15.30;101189.00;;;;5011405;27;87610;-63
2022/08/12 00:54:34;;;;;;;1.98;0.88;;;15.30;60.00;15.30;101193.00;;;;5008958;27;87964;-63
2022/08/12 00:57:05;;;;;;;1.80;1.03;;;16.00;60.50;15.30;101196.00;;;;5029973;27;90369;-63
2022/08/12 00:59:34;;;;;;;1.97;1.43;;;15.20;60.00;15.30;101191.00;;;;5015998;27;88549;-63
2022/08/12 01:02:03;;;;;;;1.63;1.30;;;15.20;60.20;15.30;101184.00;;;;5015708;27;87958;-63
2022/08/12 01:12:46;;;;;;;0.97;0.83;;;15.10;61.50;15.10;101189.00;;;;5007792;27;87660;-63
2022/08/12 01:15:13;;;;;;;1.97;1.20;;;15.10;61.70;15.10;101195.00;;;;5014078;27;90363;-63
2022/08/12 01:17:44;;;;;;;2.13;1.27;;;15.10;61.90;15.10;101188.00;;;;5014496;27;89067;-63
2022/08/12 01:20:20;;;;;;;0.80;0.80;;;15.00;62.10;15.00;101197.00;;;;5015100;27;88328;-63
2022/08/12 01:23:19;;;;;;;1.40;1.30;;;15.00;62.30;15.00;101199.00;;;;5019422;27;88902;-63
2022/08/12 01:25:49;;;;;;;1.17;1.07;;;14.90;62.70;14.90;101188.00;;;;5016056;27;87808;-63
2022/08/12 01:28:17;;;;;;;1.50;0.87;;;14.90;62.90;14.90;101190.00;;;;5013036;27;88718;-62
2022/08/12 01:30:43;;;;;;;1.37;1.20;;;14.80;63.20;14.80;101192.00;;;;5007227;27;100743;-62
2022/08/12 01:33:17;;;;;;;2.33;1.13;;;14.80;63.60;14.80;101189.00;;;;4994922;27;109602;-62
2022/08/12 01:35:54;;;;;;;1.20;1.00;;;14.70;64.20;14.70;101178.00;;;;4995804;28;88242;-62
2022/08/12 01:38:21;;;;;;;1.23;1.13;;;14.60;64.30;14.60;101185.00;;;;4994726;27;88071;-62
2022/08/12 01:40:51;;;;;;;4.27;1.30;;;14.60;64.50;14.60;101176.00;;;;4999184;27;112885;-62
2022/08/12 01:43:20;;;;;;;1.20;1.10;;;14.50;64.70;14.60;101173.00;;;;5015402;27;87650;-62
2022/08/12 01:45:59;;;;;;;1.63;1.27;;;14.50;64.90;14.50;101180.00;;;;5015863;27;87638;-63
2022/08/12 01:48:46;;;;;;;2.30;2.10;;;14.50;65.30;14.50;101179.00;;;;5001645;27;89836;-62
2022/08/12 01:51:41;;;;;;;2.17;1.50;;;14.50;65.80;14.40;101169.00;;;;5000700;27;105374;-63
2022/08/12 01:54:17;;;;;;;1.97;1.50;;;14.40;66.00;14.40;101171.00;;;;5010639;27;87731;-62
2022/08/12 01:57:12;;;;;;;1.20;1.03;;;14.40;66.10;14.30;101172.00;;;;5015598;27;88068;-63
2022/08/12 02:00:05;;;;;;;1.20;1.10;;;14.30;66.30;14.30;101175.00;;;;5012196;27;107983;-62
2022/08/12 02:02:45;;;;;;;1.37;1.27;;;14.30;66.70;14.30;101181.00;;;;5013079;27;88897;-63
2022/08/12 02:11:33;;;;;;;0.90;0.90;;;14.20;67.60;14.20;101164.00;;;;5003612;27;87879;-62
2022/08/12 02:14:44;;;;;;;1.07;0.80;;;14.10;68.10;14.10;101164.00;;;;5012976;27;87986;-62
2022/08/12 02:17:47;;;;;;;2.37;1.50;;;14.10;68.70;14.10;101164.00;;;;5012174;27;88721;-62
2022/08/12 02:20:56;;;;;;;1.90;1.30;;;14.10;69.00;14.00;101158.00;;;;5014946;27;87929;-62
2022/08/12 02:23:26;;;;;;;2.27;1.20;;;14.00;69.60;14.00;101158.00;;;;4995159;27;87858;-62
2022/08/12 02:25:58;;;;;;;3.47;1.57;;;13.90;70.30;13.90;101162.00;;;;4994610;27;88243;-63
2022/08/12 02:28:24;;;;;;;1.23;1.13;;;13.90;70.80;13.80;101161.00;;;;5011398;27;87808;-63
2022/08/12 02:30:50;;;;;;;2.93;1.57;;;13.80;71.50;13.80;101160.00;;;;5010492;27;109985;-63
2022/08/12 02:33:17;;;;;;;1.47;1.37;;;13.80;72.40;13.70;101152.00;;;;5012119;27;102733;-62
2022/08/12 02:35:43;;;;;;;1.50;1.27;;;13.70;72.90;13.70;101156.00;;;;4998516;28;88840;-62
2022/08/12 02:38:11;;;;;;;1.53;1.10;;;13.60;73.20;13.60;101156.00;;;;4997431;27;102698;-62
2022/08/12 02:40:44;;;;;;;2.40;1.53;;;13.60;74.20;13.60;101151.00;;;;4999491;27;88202;-62
2022/08/12 02:43:45;;;;;;;1.33;1.23;;;13.50;75.00;13.40;101150.00;;;;4999795;27;89956;-62
2022/08/12 02:46:12;;;;;;;1.53;1.30;;;13.50;75.60;13.40;101152.00;;;;4998255;27;89045;-62
2022/08/12 02:49:09;;;;;;;1.53;1.27;;;13.40;76.10;13.40;101155.00;;;;5012905;27;87821;-62
2022/08/12 02:51:43;;;;;;;1.50;1.33;;;13.40;77.00;13.40;101147.00;;;;5013397;27;97640;-63
2022/08/12 02:54:10;;;;;;;1.60;1.13;;;13.30;77.20;13.40;101148.00;;;;4999152;27;111507;-62
2022/08/12 02:56:39;;;;;;;1.80;1.43;;;13.30;77.60;13.40;101145.00;;;;5018111;27;88267;-62
2022/08/12 02:59:15;;;;;;;1.17;1.03;;;13.30;78.00;13.40;101154.00;;;;5018455;27;87769;-62
2022/08/12 03:01:48;;;;;;;1.47;1.20;;;13.30;78.60;13.30;101155.00;;;;5006051;27;86914;-63
2022/08/12 03:04:40;;;;;;;1.73;1.63;;;13.30;79.70;13.30;101163.00;;;;4997421;27;89226;-62
2022/08/12 03:07:19;;;;;;;1.03;0.93;;;13.30;80.80;13.20;101159.00;;;;4997152;27;88067;-63
2022/08/12 03:10:08;;;;;;;1.83;0.83;;;13.20;81.00;13.20;101149.00;;;;4997159;28;88735;-63
2022/08/12 03:12:40;;;;;;;1.23;1.13;;;13.20;81.30;13.20;101152.00;;;;5002241;27;87759;-62
2022/08/12 03:15:11;;;;;;;1.40;1.30;;;13.20;81.40;13.20;101163.00;;;;5012226;27;88869;-62
2022/08/12 03:17:42;;;;;;;1.50;1.40;;;13.10;81.60;13.20;101158.00;;;;4996805;27;111145;-62
2022/08/12 03:20:10;;;;;;;1.50;1.40;;;13.10;82.00;13.20;101164.00;;;;4997178;28;87766;-63
2022/08/12 03:22:40;;;;;;;1.57;1.47;;;13.10;82.00;13.20;101164.00;;;;4998776;27;87960;-62
2022/08/12 03:25:26;;;;;;;2.03;1.83;;;13.20;82.30;13.20;101163.00;;;;4996951;28;87962;-62
2022/08/12 03:27:57;;;;;;;1.87;1.63;;;13.20;82.90;13.20;101161.00;;;;5012313;27;88152;-62
2022/08/12 03:30:25;;;;;;;1.20;1.10;;;13.20;83.40;13.20;101165.00;;;;5016969;27;87924;-63
2022/08/12 03:32:55;;;;;;;3.33;1.83;;;13.20;83.70;13.20;101165.00;;;;4998192;27;87902;-62
2022/08/12 03:35:26;;;;;;;1.27;1.20;;;13.10;83.80;13.10;101164.00;;;;5001196;27;89135;-62
2022/08/12 03:38:04;;;;;;;1.37;1.27;;;13.10;83.90;13.10;101156.00;;;;4996904;27;88259;-62
2022/08/12 03:41:47;;;;;;;2.33;1.67;;;13.10;84.20;13.20;101164.00;;;;4996976;27;89332;-61
2022/08/12 04:00:47;;;;;;;1.80;1.40;;;13.00;88.80;13.00;101169.00;;;;5016085;27;87544;-62
2022/08/12 04:05:58;;;;;;;2.33;1.13;;;12.90;89.40;13.00;101175.00;;;;5017048;27;87750;-63
2022/08/12 04:08:25;;;;;;;2.77;1.40;;;12.90;89.40;13.00;101169.00;;;;5004415;27;116102;-62
2022/08/12 04:13:39;;;;;;;1.50;1.40;;;12.90;89.80;13.00;101183.00;;;;4996884;27;87958;-62
2022/08/12 04:16:09;;;;;;;2.13;1.77;;;13.00;90.00;13.00;101178.00;;;;5016630;27;87797;-62
2022/08/12 04:18:37;;;;;;;2.00;1.17;;;13.00;90.10;13.10;101167.00;;;;5016089;27;88899;-62
2022/08/12 04:21:11;;;;;;;2.80;1.80;;;13.00;90.10;13.10;101173.00;;;;5009277;27;88002;-63
2022/08/12 04:23:41;;;;;;;0.97;0.97;;;13.10;90.20;13.20;101176.00;;;;5014361;27;87802;-62
2022/08/12 04:26:08;;;;;;;1.83;1.53;;;13.10;90.10;13.30;101177.00;;;;4996031;27;87892;-62
2022/08/12 04:28:34;;;;;;;1.53;1.40;;;13.20;90.10;13.40;101188.00;;;;4995737;27;89010;-63
2022/08/12 04:31:00;;;;;;;1.53;1.13;;;13.20;90.20;13.40;101183.00;;;;4995147;27;110105;-62
2022/08/12 04:33:26;;;;;;;2.20;1.67;;;13.30;90.20;13.50;101175.00;;;;5015398;27;87599;-63
2022/08/12 04:35:53;;;;;;;1.10;1.00;;;13.40;90.40;13.70;101169.00;;;;4997903;27;91137;-62
2022/08/12 04:38:20;;;;;;;1.37;1.07;;;13.50;90.50;13.80;101168.00;;;;4995093;27;107466;-64
2022/08/12 04:40:46;;;;;;;2.40;1.60;;;13.60;90.70;13.90;101173.00;;;;4995620;28;97820;-62
2022/08/12 04:43:12;;;;;;;1.87;1.20;;;13.80;90.90;14.10;101180.00;;;;5010847;27;97876;-63
2022/08/12 04:45:38;;;;;;;1.80;1.50;;;13.90;91.00;14.20;101179.00;;;;5013823;27;86946;-63
2022/08/12 04:48:08;;;;;;;1.13;1.03;;;14.10;91.10;14.40;101174.00;;;;4991561;27;88338;-63
2022/08/12 04:50:33;;;;;;;1.33;1.13;;;14.20;91.10;14.50;101170.00;;;;4992807;27;109655;-63
2022/08/12 04:53:00;;;;;;;1.63;1.30;;;14.40;91.20;14.70;101165.00;;;;4996637;27;105272;-63
2022/08/12 04:55:27;;;;;;;1.13;1.03;;;14.60;91.20;14.80;101178.00;;;;4994140;27;87923;-63
2022/08/12 04:57:53;;;;;;;2.53;1.20;;;14.70;91.20;15.00;101183.00;;;;4989591;27;90265;-63
2022/08/12 05:00:19;;;;;;;1.43;1.23;;;14.90;91.10;15.20;101183.00;;;;4992255;27;106562;-62
2022/08/12 05:02:45;;;;;;;1.63;1.27;;;15.10;91.10;15.40;101184.00;;;;4994525;27;87615;-62
2022/08/12 05:05:21;;;;;;;1.57;1.27;;;15.30;91.10;15.50;101175.00;;;;4997860;27;88009;-62
2022/08/12 05:07:47;;;;;;;6.40;1.63;;;15.40;91.00;15.70;101180.00;;;;4998572;27;87989;-62
2022/08/12 05:10:15;;;;;;;3.23;1.53;;;15.70;90.80;15.90;101183.00;;;;4992916;27;87879;-62
2022/08/12 05:12:45;;;;;;;1.75;1.13;;;15.80;90.70;16.10;101188.00;;;;4997674;27;101613;-63
2022/08/12 05:15:14;;;;;;;7.03;1.70;;;16.00;90.70;16.40;101202.00;;;;4995876;27;87953;-62
2022/08/12 05:17:41;;;;;;;2.40;1.58;;;16.20;90.80;16.60;101195.00;;;;4993739;27;88984;-62
2022/08/12 05:20:14;;;;;;;1.40;1.30;;;16.40;90.70;16.80;101204.00;;;;5002046;27;90987;-62
2022/08/12 05:22:44;;;;;;;1.17;1.08;;;16.60;90.50;17.00;101194.00;;;;4998551;27;88041;-62
2022/08/12 05:25:11;;;;;;;2.08;1.52;;;16.70;90.40;17.10;101194.00;;;;5001956;27;88457;-62
2022/08/12 05:27:38;;;;;;;1.33;0.98;;;16.90;90.10;17.30;101188.00;;;;4995847;27;89344;-62
2022/08/12 05:30:06;;;;;;;2.47;1.48;;;17.10;89.90;17.50;101200.00;;;;5008839;27;88567;-63
2022/08/12 05:32:32;;;;;;;1.38;1.25;;;17.30;89.30;17.70;101201.00;;;;5001837;27;87857;-62
2022/08/12 05:35:01;;;;;;;1.13;1.02;;;17.50;88.60;17.90;101202.00;;;;5005926;27;87248;-63
2022/08/12 05:37:26;;;;;;;2.17;1.70;;;17.70;87.80;18.10;101212.00;;;;4992186;27;88206;-62
2022/08/12 05:39:52;;;;;;;2.55;1.65;;;17.90;87.00;18.30;101209.00;;;;4990627;27;117766;-63
2022/08/12 05:42:18;;;;;;;2.83;1.73;;;18.10;86.00;18.50;101208.00;;;;4994269;27;109701;-62
2022/08/12 05:44:43;;;;;;;2.20;1.52;;;18.30;85.00;18.70;101210.00;;;;4995312;27;87891;-63
2022/08/12 05:47:11;;;;;;;1.10;0.98;;;18.50;84.10;18.90;101222.00;;;;4994291;27;88333;-63
2022/08/12 05:49:39;;;;;;;1.08;1.02;;;18.70;83.20;19.10;101225.00;;;;4991237;27;87922;-63
2022/08/12 05:52:06;;;;;;;2.88;1.20;;;18.80;82.10;19.30;101232.00;;;;4994798;27;88135;-63
2022/08/12 05:54:33;;;;;;;1.92;1.27;;;19.00;80.50;19.50;101228.00;;;;4995843;27;87602;-63
2022/08/12 05:56:58;;;;;;;1.95;1.23;;;19.20;79.50;19.60;101227.00;;;;4994906;27;89002;-62
2022/08/12 05:59:24;;;;;;;4.50;1.27;;;19.30;78.90;19.80;101222.00;;;;4994145;27;87819;-65
2022/08/12 06:01:50;;;;;;;1.52;1.42;;;19.50;78.20;20.00;101228.00;;;;5007017;27;87940;-64
2022/08/12 06:04:15;;;;;;;4.93;1.05;;;19.70;77.30;20.10;101224.00;;;;4996760;27;109948;-64
2022/08/12 06:06:42;;;;;;;1.52;0.93;;;19.80;76.20;20.30;101226.00;;;;4996969;27;118067;-62
2022/08/12 06:09:10;;;;;;;3.42;1.50;;;20.00;75.80;20.60;101229.00;;;;5003067;27;89000;-65
2022/08/12 06:11:40;;;;;;;1.30;1.10;;;20.30;75.10;20.80;101227.00;;;;5002200;27;87821;-62
2022/08/12 06:14:05;;;;;;;0.73;0.73;;;20.50;73.80;21.00;101229.00;;;;5000847;27;87844;-63
2022/08/12 06:16:32;;;;;;;1.13;1.05;;;20.70;72.50;21.10;101234.00;;;;5002802;27;116540;-63
2022/08/12 06:18:57;;;;;;;4.55;1.00;;;20.80;71.90;21.30;101234.00;;;;5002151;27;88536;-63
2022/08/12 06:21:23;;;;;;;2.10;1.30;;;21.00;71.30;21.50;101227.00;;;;4994866;27;108056;-64
2022/08/12 06:23:52;;;;;;;2.15;1.08;;;21.20;70.30;21.70;101232.00;;;;4994533;27;105044;-64
2022/08/12 06:26:19;;;;;;;2.22;1.15;;;21.40;69.80;22.00;101239.00;;;;5001456;27;89050;-63
2022/08/12 06:28:49;;;;;;;0.73;0.70;;;21.60;68.10;22.20;101244.00;;;;4994420;27;88598;-64
2022/08/12 06:31:19;;;;;;;3.50;1.23;;;21.90;66.70;22.30;101239.00;;;;5002841;27;88615;-64
2022/08/12 06:33:48;;;;;;;2.08;1.20;;;22.00;65.90;22.50;101245.00;;;;4996769;27;88562;-64
2022/08/12 06:36:16;;;;;;;1.13;0.82;;;22.20;65.00;22.70;101237.00;;;;5006313;27;111835;-64
2022/08/12 06:38:44;;;;;;;0.63;0.63;;;22.40;63.80;22.70;101241.00;;;;5008936;27;89607;-64
2022/08/12 06:43:55;;;;;;;5.88;1.38;;;22.50;60.90;22.80;101245.00;;;;5000329;27;87845;-64
2022/08/12 06:46:26;;;;;;;2.95;1.10;;;22.60;61.00;23.00;101249.00;;;;4998472;27;88674;-64
2022/08/12 06:48:57;;;;;;;1.45;0.88;;;22.70;61.60;23.20;101251.00;;;;4993890;27;105467;-64
2022/08/12 06:51:26;;;;;;;2.38;1.33;;;22.80;59.80;23.20;101245.00;;;;4995431;27;87939;-64
2022/08/12 06:53:52;;;;;;;4.57;1.30;;;22.90;59.10;23.20;101247.00;;;;5001618;27;87688;-64
2022/08/12 06:56:18;;;;;;;2.08;0.88;;;23.00;59.10;23.30;101248.00;;;;4996112;27;89591;-63
2022/08/12 06:58:43;;;;;;;0.70;0.70;;;23.00;58.70;23.50;101247.00;;;;4994341;27;89850;-65
2022/08/12 07:01:09;;;;;;;5.18;0.60;;;23.20;58.70;23.70;101245.00;;;;4996176;27;109980;-64
2022/08/12 07:03:37;;;;;;;1.38;0.95;;;23.30;57.90;23.90;101248.00;;;;4997413;27;87756;-65
2022/08/12 07:06:06;;;;;;;2.67;0.93;;;23.50;57.20;24.10;101254.00;;;;4994983;27;88045;-64
2022/08/12 07:08:34;;;;;;;1.60;1.48;;;23.70;56.80;24.20;101247.00;;;;4994085;27;88588;-64
2022/08/12 07:11:02;;;;;;;0.85;0.80;;;23.90;56.40;24.40;101252.00;;;;5001031;27;92674;-65
2022/08/12 07:13:42;;;;;;;3.72;1.17;;;24.00;55.70;24.60;101245.00;;;;4993051;27;87110;-64
2022/08/12 07:16:10;;;;;;;0.68;0.68;;;24.30;54.80;24.70;101246.00;;;;4993675;27;88687;-64
2022/08/12 07:18:37;;;;;;;0.63;0.60;;;24.40;54.50;24.80;101249.00;;;;4993268;27;87532;-64
2022/08/12 07:21:06;;;;;;;1.33;1.23;;;24.50;54.10;24.90;101244.00;;;;4999664;27;109075;-64
2022/08/12 07:23:35;;;;;;;0.70;0.60;;;24.60;53.80;25.00;101246.00;;;;4993616;27;87754;-64
2022/08/12 07:26:04;;;;;;;1.85;0.90;;;24.70;53.90;25.10;101245.00;;;;4993448;27;88333;-64
2022/08/12 07:28:34;;;;;;;0.80;0.70;;;24.80;53.60;25.30;101251.00;;;;4973703;27;91062;-64
2022/08/12 07:31:07;;;;;;;0.95;0.82;;;25.00;53.40;25.20;101257.00;;;;4086554;27;10000376;-64
2022/08/12 07:33:39;;;;;;;1.27;0.90;;;25.00;52.90;25.10;101258.00;;;;4952571;28;88374;-63
2022/08/12 07:36:09;;;;;;;1.70;0.70;;;24.90;52.40;24.90;101252.00;;;;4952981;28;87819;-64
2022/08/12 07:38:43;;;;;;;1.15;1.00;;;24.70;52.60;24.70;101247.00;;;;4953438;28;87430;-63
2022/08/12 07:41:15;;;;;;;3.30;1.08;;;24.50;53.10;24.50;101263.00;;;;4953405;28;88806;-63
2022/08/12 07:43:44;;;;;;;1.63;1.48;;;24.30;53.60;24.30;101261.00;;;;4952494;28;101387;-64
2022/08/12 07:46:15;;;;;;;0.70;0.65;;;24.10;53.80;24.20;101263.00;;;;4953271;28;88890;-64
2022/08/12 07:48:47;;;;;;;1.85;1.42;;;24.00;54.20;24.20;101264.00;;;;4952721;28;88679;-64
2022/08/12 07:51:14;;;;;;;3.35;1.65;;;24.00;54.60;24.30;101267.00;;;;4953140;28;90051;-63
2022/08/12 07:53:40;;;;;;;0.63;0.63;;;24.00;54.50;24.30;101256.00;;;;4952380;28;88600;-64
2022/08/12 07:56:08;;;;;;;0.80;0.80;;;24.00;54.50;24.30;101263.00;;;;4951974;28;110961;-63
2022/08/12 07:58:38;;;;;;;5.80;0.93;;;24.00;54.40;24.30;101258.00;;;;4952007;28;87890;-64
2022/08/12 08:01:09;;;;;;;0.90;0.82;;;24.00;54.40;24.40;101263.00;;;;4952742;28;88879;-63
2022/08/12 08:04:54;;;;;;;1.60;1.23;;;24.10;54.60;24.60;101266.00;;;;4952559;28;88873;-64
2022/08/12 08:06:27;;;;;;;0.70;0.70;;;24.20;54.60;25.10;101257.00;;;;4952581;28;88013;-64
2022/08/12 08:08:56;;;;;;;2.03;0.60;;;24.60;54.10;25.40;101257.00;;;;4953295;28;88262;-65
2022/08/12 08:14:09;;;;;;;1.00;0.80;;;25.40;53.20;26.10;101252.00;;;;4943337;28;89060;-65
2022/08/12 08:16:39;;;;;;;2.65;1.17;;;25.70;52.50;26.40;101249.00;;;;4943667;28;88007;-64
2022/08/12 08:19:14;;;;;;;2.10;1.17;;;25.90;52.10;26.70;101256.00;;;;4966510;28;100061;-65
2022/08/12 08:21:41;;;;;;;11.75;1.00;;;26.20;51.30;26.90;101250.00;;;;4950648;28;89047;-64
2022/08/12 08:24:13;;;;;;;1.20;1.10;;;26.50;51.20;27.20;101246.00;;;;4944961;28;88776;-64
2022/08/12 08:26:40;;;;;;;1.25;1.05;;;26.70;50.60;27.50;101246.00;;;;4952788;28;88704;-65
2022/08/12 08:29:07;;;;;;;0.60;0.45;;;27.10;50.40;27.80;101244.00;;;;4952278;28;87247;-65
2022/08/12 08:31:34;;;;;;;0.85;0.85;;;27.30;49.80;28.00;101248.00;;;;4952396;28;89519;-65
2022/08/12 08:34:01;;;;;;;0.95;0.85;;;27.60;50.00;28.30;101259.00;;;;4950009;28;88460;-64
2022/08/12 08:36:27;;;;;;;5.05;0.98;;;27.80;49.00;28.60;101250.00;;;;4952159;28;89048;-65
2022/08/12 08:38:53;;;;;;;1.00;0.90;;;28.10;48.20;28.70;101252.00;;;;4951343;28;93493;-65
2022/08/12 08:44:03;;;;;;;1.05;0.70;;;28.50;46.80;29.00;101247.00;;;;4951458;28;88431;-65
2022/08/12 08:46:31;;;;;;;0.77;0.65;;;28.70;46.30;29.10;101246.00;;;;4951951;28;110626;-65
2022/08/12 08:49:00;;;;;;;1.77;0.57;;;28.80;45.30;29.10;101248.00;;;;4953010;28;87833;-66
2022/08/12 08:51:26;;;;;;;2.70;0.95;;;28.80;45.00;29.20;101240.00;;;;4951946;28;89025;-65
2022/08/12 08:53:52;;;;;;;1.65;0.70;;;28.80;44.90;29.40;101245.00;;;;4951046;28;107090;-65
2022/08/12 08:56:18;;;;;;;12.32;0.93;;;29.00;44.20;29.60;101246.00;;;;4952356;28;87883;-64
2022/08/12 08:58:44;;;;;;;0.57;0.55;;;29.10;43.90;29.70;101245.00;;;;4950286;28;98042;-65
2022/08/12 09:01:16;;;;;;;0.55;0.50;;;29.30;43.60;29.70;101242.00;;;;4951475;28;89063;-64
2022/08/12 09:03:42;;;;;;;1.35;0.60;;;29.40;41.60;29.50;101242.00;;;;4951723;28;89128;-65
2022/08/12 09:06:07;;;;;;;0.55;0.55;;;29.20;41.10;29.30;101247.00;;;;4951454;28;101361;-64
2022/08/12 09:08:33;;;;;;;0.68;0.50;;;29.00;42.20;29.30;101247.00;;;;4950914;28;109833;-64
2022/08/12 09:13:26;;;;;;;4.85;0.73;;;29.00;42.20;29.30;101250.00;;;;4951105;28;88109;-65
2022/08/12 09:13:44;;;;;;;0.60;0.57;;;28.90;42.10;29.10;101240.00;;;;4951119;28;87674;-65
2022/08/12 09:16:10;;;;;;;1.35;0.63;;;28.80;41.90;29.20;101245.00;;;;4951281;28;111596;-65
2022/08/12 09:18:37;;;;;;;0.60;0.60;;;28.80;42.10;29.00;101231.00;;;;4951085;28;108637;-65
2022/08/12 09:21:03;;;;;;;1.52;0.43;;;28.70;42.10;28.80;101231.00;;;;4951434;28;89733;-65
2022/08/12 09:23:29;;;;;;;1.52;1.00;;;28.60;42.10;28.80;101237.00;;;;4949846;28;87980;-64
2022/08/12 09:25:54;;;;;;;1.42;1.00;;;28.50;42.90;29.00;101230.00;;;;4950362;28;105351;-65
2022/08/12 09:28:25;;;;;;;0.70;0.70;;;28.60;43.50;29.20;101235.00;;;;4950613;28;107898;-64
2022/08/12 09:30:52;;;;;;;0.30;0.30;;;28.70;43.10;29.40;101226.00;;;;4948680;28;118237;-65
2022/08/12 09:33:18;;;;;;;0.47;0.47;;;28.80;43.10;29.70;101230.00;;;;4950837;28;88626;-65
2022/08/12 09:35:44;;;;;;;0.82;0.75;;;29.10;42.50;29.80;101227.00;;;;4950349;28;111073;-65
2022/08/12 09:38:16;;;;;;;3.53;0.70;;;29.30;42.10;30.00;101224.00;;;;4953804;28;87760;-65
2022/08/12 09:40:43;;;;;;;2.72;0.68;;;29.40;42.20;30.20;101230.00;;;;4955384;28;89279;-65
2022/08/12 09:45:58;;;;;;;0.88;0.50;;;29.80;42.00;30.40;101222.00;;;;4937250;28;88116;-65
2022/08/12 09:48:25;;;;;;;1.27;0.65;;;29.90;41.40;30.40;101228.00;;;;4954505;28;107602;-65
2022/08/12 09:50:52;;;;;;;0.85;0.63;;;30.00;40.90;30.40;101213.00;;;;4954277;28;89028;-64
2022/08/12 09:53:23;;;;;;;0.88;0.52;;;30.00;40.90;30.50;101219.00;;;;4954780;28;88785;-65
2022/08/12 09:55:55;;;;;;;0.32;0.22;;;30.00;40.70;30.50;101221.00;;;;4954562;28;101905;-64
2022/08/12 09:58:28;;;;;;;0.40;0.40;;;30.10;40.50;30.50;101221.00;;;;4954608;28;87602;-65
2022/08/12 10:01:03;;;;;;;0.38;0.38;;;30.10;40.50;30.50;101214.00;;;;4954702;28;88624;-64
2022/08/12 10:03:33;;;;;;;3.63;0.75;;;30.10;40.30;30.50;101208.00;;;;4950262;28;87669;-64
2022/08/12 10:06:01;;;;;;;0.60;0.60;;;30.10;40.00;30.40;101211.00;;;;4954737;28;87928;-65
2022/08/12 10:08:29;;;;;;;0.82;0.63;;;30.00;39.30;30.10;101209.00;;;;4956373;28;87189;-64
2022/08/12 10:13:41;;;;;;;0.47;0.43;;;29.70;39.80;30.20;101191.00;;;;4951419;28;87917;-65
2022/08/12 10:16:27;;;;;;;0.50;0.50;;;29.70;39.40;30.40;101183.00;;;;4954084;28;88477;-65
2022/08/12 10:19:02;;;;;;;0.70;0.68;;;29.80;39.30;30.70;101182.00;;;;4953905;28;87644;-64
2022/08/12 10:21:37;;;;;;;0.45;0.40;;;30.00;38.60;31.00;101186.00;;;;4954949;28;88415;-65
2022/08/12 10:24:09;;;;;;;0.52;0.40;;;30.30;37.90;31.20;101173.00;;;;4953346;28;87817;-65
2022/08/12 10:29:43;;;;;;;0.22;0.22;;;30.70;37.60;31.60;101169.00;;;;4952602;28;87719;-65
2022/08/12 10:32:15;;;;;;;3.10;0.32;;;31.00;37.00;31.70;101174.00;;;;4952556;28;89445;-65
2022/08/12 10:34:42;;;;;;;1.40;0.93;;;31.00;36.60;31.80;101174.00;;;;4951549;28;88784;-65
2022/08/12 10:37:08;;;;;;;0.40;0.40;;;31.10;36.40;31.80;101162.00;;;;4953843;28;88119;-64
2022/08/12 10:39:36;;;;;;;0.40;0.40;;;31.20;36.60;31.70;101172.00;;;;4953264;28;87565;-66
2022/08/12 10:44:59;;;;;;;0.30;0.30;;;31.30;36.20;32.10;101163.00;;;;4952907;28;88582;-65
2022/08/12 10:47:34;;;;;;;0.40;0.40;;;31.40;36.50;32.40;101153.00;;;;4953162;28;87788;-65
2022/08/12 10:50:00;;;;;;;1.55;0.55;;;31.70;36.00;32.30;101153.00;;;;4953176;28;87848;-66
2022/08/12 10:52:29;;;;;;;0.30;0.30;;;31.70;35.40;32.00;101151.00;;;;4951970;28;107804;-66
2022/08/12 10:54:55;;;;;;;0.93;0.68;;;31.60;35.30;32.00;101142.00;;;;4952461;28;87838;-65
2022/08/12 10:57:25;;;;;;;0.40;0.32;;;31.40;35.70;32.00;101154.00;;;;4953374;28;87822;-65
2022/08/12 10:59:55;;;;;;;0.77;0.73;;;31.40;35.90;32.10;101142.00;;;;4953053;28;87154;-66
2022/08/12 11:02:24;;;;;;;0.73;0.35;;;31.40;35.40;32.20;101150.00;;;;4952165;28;89011;-65
2022/08/12 11:04:50;;;;;;;0.40;0.40;;;31.50;35.40;32.40;101144.00;;;;4951928;28;88345;-65
2022/08/12 11:07:16;;;;;;;1.65;0.50;;;31.70;35.60;32.60;101143.00;;;;4952156;28;88967;-65
2022/08/12 11:09:42;;;;;;;0.80;0.57;;;31.90;35.30;32.90;101141.00;;;;4950150;28;87739;-65
2022/08/12 11:12:08;;;;;;;0.63;0.63;;;32.10;35.50;33.10;101139.00;;;;4951951;28;89201;-65
2022/08/12 11:14:41;;;;;;;0.80;0.38;;;32.40;35.30;33.40;101138.00;;;;4950812;28;117904;-65
2022/08/12 11:17:11;;;;;;;0.50;0.50;;;32.60;34.90;33.60;101133.00;;;;4949639;28;87900;-64
2022/08/12 11:19:38;;;;;;;0.63;0.40;;;32.90;34.60;33.50;101145.00;;;;4951632;28;87712;-64
2022/08/12 11:22:06;;;;;;;0.65;0.65;;;32.90;34.00;33.50;101135.00;;;;4949683;28;88777;-63
2022/08/12 11:24:32;;;;;;;0.28;0.28;;;32.80;34.00;33.60;101130.00;;;;4951486;28;109142;-63
2022/08/12 11:27:00;;;;;;;0.50;0.50;;;32.90;34.00;33.80;101129.00;;;;4951354;28;101231;-64
2022/08/12 11:29:27;;;;;;;1.90;0.77;;;33.10;33.70;34.10;101130.00;;;;4950138;28;88098;-64
2022/08/12 11:31:54;;;;;;;0.40;0.30;;;33.30;33.60;34.20;101130.00;;;;4912111;28;1117199;-64
2022/08/12 11:34:20;;;;;;;3.03;0.70;;;33.50;33.00;34.00;101122.00;;;;4951498;28;110928;-63
2022/08/12 11:36:55;;;;;;;0.50;0.50;;;33.50;32.40;33.40;101125.00;;;;4953512;28;87978;-64
2022/08/12 11:39:22;;;;;;;0.28;0.28;;;33.10;32.40;32.70;101124.00;;;;4953691;28;87711;-64
2022/08/12 11:41:48;;;;;;;0.57;0.40;;;32.50;33.00;32.20;101123.00;;;;4952762;28;89364;-64
2022/08/12 11:44:15;;;;;;;0.80;0.38;;;32.00;33.70;31.80;101127.00;;;;4952088;28;118018;-64
2022/08/12 11:46:41;;;;;;;0.47;0.47;;;31.50;34.30;31.50;101129.00;;;;4953345;28;88199;-63
2022/08/12 11:49:07;;;;;;;0.40;0.32;;;31.20;34.90;31.60;101113.00;;;;4951111;28;87045;-64
2022/08/12 11:51:34;;;;;;;0.50;0.50;;;31.10;35.30;32.10;101115.00;;;;4950389;28;106757;-63
2022/08/12 11:54:00;;;;;;;0.40;0.40;;;31.40;35.40;32.60;101117.00;;;;4952603;28;87809;-64
2022/08/12 11:56:26;;;;;;;0.70;0.50;;;31.80;35.20;32.70;101113.00;;;;4951936;28;109717;-64
2022/08/12 11:58:52;;;;;;;1.73;0.52;;;32.10;34.60;32.70;101113.00;;;;4953032;28;88171;-64
2022/08/12 12:01:18;;;;;;;0.95;0.63;;;32.10;34.40;32.60;101118.00;;;;4951328;28;103420;-65
2022/08/12 12:03:44;;;;;;;0.35;0.30;;;32.10;34.20;32.40;101119.00;;;;4951844;28;94320;-64
2022/08/12 12:06:09;;;;;;;0.35;0.35;;;31.90;34.20;32.10;101112.00;;;;4952110;28;110474;-64
2022/08/12 12:08:35;;;;;;;1.95;0.82;;;31.70;34.50;31.80;101123.00;;;;4951663;28;104714;-64
2022/08/12 12:11:01;;;;;;;4.18;0.45;;;31.50;34.90;31.50;101126.00;;;;4951351;28;117313;-63
2022/08/12 12:13:27;;;;;;;0.52;0.52;;;31.10;35.10;31.50;101113.00;;;;4951197;28;117389;-63
2022/08/12 12:15:53;;;;;;;1.42;0.57;;;31.10;35.30;31.60;101110.00;;;;4952019;28;111850;-64
2022/08/12 12:18:30;;;;;;;0.43;0.43;;;31.10;35.50;31.70;101118.00;;;;4951777;28;87901;-64
2022/08/12 12:21:02;;;;;;;0.70;0.30;;;31.10;35.30;31.50;101122.00;;;;4951131;28;103416;-64
2022/08/12 12:23:28;;;;;;;0.30;0.30;;;31.10;35.30;31.20;101119.00;;;;4950704;28;93977;-66
2022/08/12 12:25:55;;;;;;;0.63;0.63;;;30.80;35.40;31.00;101110.00;;;;4951733;28;87789;-64
2022/08/12 12:28:21;;;;;;;1.35;0.73;;;30.60;35.90;30.90;101106.00;;;;4951672;28;87739;-63
2022/08/12 12:30:46;;;;;;;0.52;0.47;;;30.50;36.10;31.00;101101.00;;;;4950619;28;118923;-63
2022/08/12 12:33:13;;;;;;;0.40;0.40;;;30.50;36.40;31.40;101111.00;;;;4951047;28;98052;-63
2022/08/12 12:35:40;;;;;;;0.70;0.47;;;30.80;36.60;31.90;101105.00;;;;4952337;28;87828;-64
2022/08/12 12:38:11;;;;;;;0.68;0.60;;;31.10;36.10;32.30;101106.00;;;;4953710;28;87602;-63